The Eastern Iowa Airport
KCID : now visible

Airfield :











YOU CAN JOIN US ON...

 
LOGIN :

Register | Disclaimer

   EN    FR    IT 

 









Legend :    VFR   Marginal VFR   IFR   Intensive IFR   Very Intensive IFR
Visi :
Ceiling :
>= 8 km
>= 3000ft
5 to 8 km
1000 to 3000 ft
1500m to 5 km
500 to 1000 ft
800 to 1500m
200 to 500 ft
< 800m
< 200 ft
Symbols :   Thunderstorms  Fog  Heavy snow  Heavy precipitations  Wind > 20 kt






- Airport Elevation : 869 ft
- IATA code : CID


KCID - The Eastern Iowa

CURRENT METAR :
  • 130352Z 31008KT 4SM BR BKN008 OVC031 M03/M04 A3002 RMK AO2 SLP173 T10281039

EXPIRED METARs :
  • 130252Z 33011KT 5SM BR OVC009 M02/M03 A3002 RMK AO2 SLP175 T10221033 50004
  • 130231Z 33010KT 5SM BR BKN009 OVC034 M02/M03 A3002 RMK AO2 T10171028
  • 130214Z 32012KT 5SM BR SCT009 OVC035 M02/M03 A3002 RMK AO2 T10171028
  • 130152Z 33010KT 5SM BR OVC035 M01/M03 A3002 RMK AO2 SLP177 T10111028

TAF KCID
Valid from the 13 at 03:00 until the 14 at 00:00 UTC


130244Z 1303/1324 33010KT 5SM BR BKN009 OVC035
FM131200 36005KT P6SM OVC012
FM131800 VRB03KT P6SM BKN250



MET'MAP, your aeronautical weather chart ! - Copyright ORBIFLY December 2007 - Disclaimer

ORBIFLY MET'MAP TEAM :

Programming & Development : Alexandra Zaïnal
Concept & original design : Baudouin d'Aumeries
Assistance for programming : Marc-Olivier Méhu
Technical & hardware support : Manuel Goepfert

Contact : metmap@orbifly.com




SOURCES & CREDITS :

   NOAA       Earth
Advisory